createdAt,value
2018-09-28T00:01:40.233Z,39.80
2018-09-28T00:04:07.334Z,39.80
2018-09-28T00:06:34.407Z,39.90
2018-09-28T00:09:01.505Z,40.00
2018-09-28T00:11:30.216Z,39.90
2018-09-28T00:13:57.298Z,40.00
2018-09-28T00:16:24.377Z,40.00
2018-09-28T00:18:51.777Z,40.00
2018-09-28T00:21:18.857Z,40.00
2018-09-28T00:23:45.933Z,40.10
2018-09-28T00:26:13.325Z,40.10
2018-09-28T00:28:40.409Z,40.10
2018-09-28T00:31:07.501Z,40.10
2018-09-28T00:33:34.709Z,40.20
2018-09-28T00:36:01.877Z,40.20
2018-09-28T00:38:28.873Z,40.20
2018-09-28T00:40:55.962Z,40.20
2018-09-28T00:43:23.053Z,40.20
2018-09-28T00:45:50.133Z,40.30
2018-09-28T00:48:17.645Z,40.30
2018-09-28T00:50:44.720Z,40.30
2018-09-28T00:53:11.797Z,40.30
2018-09-28T00:55:38.889Z,40.30
2018-09-28T00:58:05.953Z,40.30
2018-09-28T01:00:33.025Z,40.30
2018-09-28T01:03:00.126Z,40.40
2018-09-28T01:05:27.207Z,40.40
2018-09-28T01:07:54.543Z,40.40
2018-09-28T01:10:21.640Z,40.40
2018-09-28T01:12:48.709Z,40.40
2018-09-28T01:15:15.777Z,40.40
2018-09-28T01:17:42.844Z,40.40
2018-09-28T01:20:09.915Z,40.40
2018-09-28T01:22:37.013Z,40.40
2018-09-28T01:25:04.141Z,40.50
2018-09-28T01:27:31.209Z,40.50
2018-09-28T01:29:58.301Z,40.50
2018-09-28T01:32:25.409Z,40.50
2018-09-28T01:34:52.486Z,40.50
2018-09-28T01:37:19.562Z,40.50
2018-09-28T01:39:46.654Z,40.50
2018-09-28T01:42:13.739Z,40.50
2018-09-28T01:44:40.810Z,40.50
2018-09-28T01:47:07.929Z,40.60
2018-09-28T01:49:35.018Z,40.60
2018-09-28T01:52:02.097Z,40.60
2018-09-28T01:54:29.181Z,40.70
2018-09-28T01:56:56.264Z,40.80
2018-09-28T01:59:23.337Z,40.90
2018-09-28T02:01:50.412Z,41.10
2018-09-28T02:04:17.501Z,41.20
2018-09-28T02:06:44.577Z,41.20
2018-09-28T02:09:12.037Z,41.30
2018-09-28T02:11:39.121Z,41.50
2018-09-28T02:14:06.206Z,41.40
2018-09-28T02:16:33.281Z,41.50
2018-09-28T02:19:00.365Z,41.50
2018-09-28T02:21:27.813Z,41.60
2018-09-28T02:23:54.894Z,41.60
2018-09-28T02:26:21.957Z,41.70
2018-09-28T02:28:49.042Z,41.70
2018-09-28T02:31:16.137Z,41.80
2018-09-28T02:33:43.717Z,41.90
2018-09-28T02:36:11.000Z,41.90
2018-09-28T02:38:38.262Z,41.90
2018-09-28T02:41:05.781Z,41.90
2018-09-28T02:43:32.867Z,41.90
2018-09-28T02:46:00.245Z,41.90
2018-09-28T02:48:27.333Z,41.90
2018-09-28T02:50:54.397Z,41.80
2018-09-28T02:53:21.478Z,41.90
2018-09-28T02:55:49.450Z,41.90
2018-09-28T02:58:16.521Z,41.90
2018-09-28T03:00:44.010Z,41.90
2018-09-28T03:03:11.089Z,42.00
2018-09-28T03:05:38.517Z,42.10
2018-09-28T03:08:06.533Z,42.30
2018-09-28T03:10:33.893Z,42.00
2018-09-28T03:13:00.968Z,42.10
2018-09-28T03:15:28.043Z,42.30
2018-09-28T03:17:55.141Z,42.10
2018-09-28T03:20:22.215Z,42.20
2018-09-28T03:22:49.285Z,42.20
2018-09-28T03:25:16.366Z,42.20
2018-09-28T03:27:43.447Z,42.30
2018-09-28T03:30:10.524Z,42.20
2018-09-28T03:32:37.625Z,42.20
2018-09-28T03:35:04.761Z,42.30
2018-09-28T03:37:31.842Z,42.20
2018-09-28T03:39:58.933Z,42.30
2018-09-28T03:42:26.017Z,42.30
2018-09-28T03:44:53.086Z,42.40
2018-09-28T03:47:20.202Z,42.40
2018-09-28T03:49:47.280Z,42.40
2018-09-28T03:52:14.361Z,42.40
2018-09-28T03:54:42.077Z,42.50
2018-09-28T03:57:09.154Z,42.50
2018-09-28T03:59:36.229Z,42.70
2018-09-28T04:02:03.330Z,42.60
2018-09-28T04:04:30.425Z,42.60
2018-09-28T04:06:57.533Z,42.70
2018-09-28T04:09:24.626Z,42.80
2018-09-28T04:11:51.740Z,42.80
2018-09-28T04:14:18.854Z,42.80
2018-09-28T04:16:45.938Z,42.80
2018-09-28T04:19:13.017Z,42.90
2018-09-28T04:21:44.780Z,42.90
2018-09-28T04:24:11.815Z,43.30
2018-09-28T04:26:38.921Z,43.00
2018-09-28T04:29:06.665Z,43.00
2018-09-28T04:31:33.762Z,42.90
2018-09-28T04:34:00.847Z,43.00
2018-09-28T04:36:27.921Z,43.00
2018-09-28T04:38:55.005Z,43.00
2018-09-28T04:41:22.088Z,43.00
2018-09-28T04:43:49.157Z,42.90
2018-09-28T04:46:16.254Z,42.90
2018-09-28T04:48:43.336Z,42.90
2018-09-28T04:51:10.461Z,42.90
2018-09-28T04:53:38.113Z,42.90
2018-09-28T04:56:05.586Z,42.90
2018-09-28T04:58:32.666Z,42.90
2018-09-28T05:00:59.758Z,42.90
2018-09-28T05:03:26.834Z,42.90
2018-09-28T05:05:53.901Z,42.80
2018-09-28T05:08:20.985Z,42.80
2018-09-28T05:10:48.058Z,42.80
2018-09-28T05:13:15.174Z,42.70
2018-09-28T05:15:42.227Z,42.70
2018-09-28T05:18:09.321Z,42.80
2018-09-28T05:20:36.393Z,42.80
2018-09-28T05:23:03.489Z,42.80
2018-09-28T05:25:30.570Z,42.80
2018-09-28T05:27:57.646Z,42.80
2018-09-28T05:30:24.733Z,42.80
2018-09-28T05:32:51.934Z,42.80
2018-09-28T05:35:19.010Z,42.80
2018-09-28T05:37:46.127Z,42.80
2018-09-28T05:40:13.188Z,42.80
2018-09-28T05:42:40.273Z,42.80
2018-09-28T05:45:07.386Z,42.80
2018-09-28T05:47:34.477Z,42.80
2018-09-28T05:50:01.563Z,42.70
2018-09-28T05:52:28.642Z,42.80
2018-09-28T05:54:55.713Z,42.70
2018-09-28T05:57:22.781Z,42.70
2018-09-28T05:59:55.507Z,42.70
2018-09-28T06:02:28.448Z,42.70
2018-09-28T06:05:01.382Z,42.80
2018-09-28T06:07:28.474Z,42.70
2018-09-28T06:09:55.574Z,42.70
2018-09-28T06:12:22.677Z,42.80
2018-09-28T06:14:49.750Z,42.70
2018-09-28T06:17:16.829Z,42.70
2018-09-28T06:19:43.933Z,42.70
2018-09-28T06:22:11.009Z,42.70
2018-09-28T06:24:38.090Z,42.60
2018-09-28T06:27:05.299Z,42.60
2018-09-28T06:29:32.403Z,42.60
2018-09-28T06:31:59.506Z,42.50
2018-09-28T06:34:26.586Z,42.50
2018-09-28T06:36:53.681Z,42.50
2018-09-28T06:39:20.783Z,42.50
2018-09-28T06:41:47.877Z,42.70
2018-09-28T06:44:14.990Z,42.40
2018-09-28T06:46:42.109Z,42.80
2018-09-28T06:49:09.197Z,42.50
2018-09-28T06:51:36.293Z,42.40
2018-09-28T06:54:03.442Z,42.30
2018-09-28T06:56:30.529Z,42.30
2018-09-28T06:58:57.619Z,42.30
2018-09-28T07:01:24.703Z,42.30
2018-09-28T07:03:51.806Z,42.20
2018-09-28T07:06:18.994Z,42.10
2018-09-28T07:08:46.010Z,42.10
2018-09-28T07:11:13.081Z,41.90
2018-09-28T07:13:40.509Z,41.90
2018-09-28T07:16:07.623Z,41.80
2018-09-28T07:18:34.719Z,41.80
2018-09-28T07:21:01.973Z,41.80
2018-09-28T07:23:29.046Z,41.70
2018-09-28T07:25:56.361Z,41.60
2018-09-28T07:28:23.434Z,41.50
2018-09-28T07:30:50.501Z,41.50
2018-09-28T07:33:17.586Z,41.50
2018-09-28T07:35:44.739Z,41.40
2018-09-28T07:38:11.780Z,41.40
2018-09-28T07:40:38.862Z,41.40
2018-09-28T07:43:05.974Z,41.30
2018-09-28T07:45:33.062Z,41.20
2018-09-28T07:48:00.256Z,41.00
2018-09-28T07:50:27.283Z,40.80
2018-09-28T07:52:54.367Z,40.70
2018-09-28T07:55:21.441Z,40.60
2018-09-28T07:57:48.545Z,40.60
2018-09-28T08:00:15.621Z,40.60
2018-09-28T08:02:42.701Z,40.60
2018-09-28T08:05:09.797Z,40.60
2018-09-28T08:07:36.886Z,40.60
2018-09-28T08:10:04.370Z,40.60
2018-09-28T08:12:31.449Z,40.60
2018-09-28T08:14:58.549Z,40.70
2018-09-28T08:17:25.617Z,40.60
2018-09-28T08:19:52.713Z,40.60
2018-09-28T08:22:19.960Z,40.60
2018-09-28T08:24:47.048Z,40.50
2018-09-28T08:27:14.129Z,40.50
2018-09-28T08:29:41.205Z,40.40
2018-09-28T08:32:08.286Z,40.30
2018-09-28T08:34:35.369Z,40.30
2018-09-28T08:37:02.458Z,40.40
2018-09-28T08:39:29.526Z,40.50
2018-09-28T08:41:56.670Z,40.60
2018-09-28T08:44:23.681Z,40.50
2018-09-28T08:46:50.757Z,40.30
2018-09-28T08:49:17.930Z,40.20
2018-09-28T08:51:44.977Z,40.10
2018-09-28T08:54:12.048Z,40.00
2018-09-28T08:56:39.149Z,39.90
2018-09-28T08:59:06.225Z,40.00
2018-09-28T09:01:33.295Z,39.50
2018-09-28T09:04:00.521Z,39.60
2018-09-28T09:06:27.597Z,39.70
2018-09-28T09:08:54.749Z,39.70
2018-09-28T09:11:21.817Z,39.60
2018-09-28T09:13:48.893Z,39.60
2018-09-28T09:16:16.007Z,39.50
2018-09-28T09:18:43.398Z,39.50
2018-09-28T09:21:10.477Z,39.40
2018-09-28T09:23:37.561Z,39.40
2018-09-28T09:26:04.653Z,39.00
2018-09-28T09:28:31.749Z,38.80
2018-09-28T09:30:58.841Z,38.60
2018-09-28T09:33:26.017Z,38.70
2018-09-28T09:35:53.173Z,38.50
2018-09-28T09:38:20.265Z,38.50
2018-09-28T09:40:47.373Z,38.30
2018-09-28T09:43:14.621Z,38.00
2018-09-28T09:45:42.409Z,38.10
2018-09-28T09:48:09.490Z,38.00
2018-09-28T09:50:36.557Z,38.20
2018-09-28T09:53:03.637Z,38.00
2018-09-28T09:55:30.729Z,37.80
2018-09-28T09:57:57.849Z,37.80
2018-09-28T10:00:30.815Z,37.80
2018-09-28T10:03:00.729Z,37.80
2018-09-28T10:05:27.875Z,37.70
2018-09-28T10:07:54.937Z,37.50
2018-09-28T10:10:22.026Z,37.60
2018-09-28T10:12:49.327Z,37.60
2018-09-28T10:15:16.349Z,37.60
2018-09-28T10:17:43.463Z,37.40
2018-09-28T10:20:10.544Z,37.40
2018-09-28T10:22:37.629Z,37.20
2018-09-28T10:25:04.709Z,37.30
2018-09-28T10:27:31.873Z,37.10
2018-09-28T10:29:58.880Z,37.20
2018-09-28T10:32:25.957Z,37.00
2018-09-28T10:34:53.139Z,36.80
2018-09-28T10:37:20.144Z,36.70
2018-09-28T10:39:47.292Z,36.50
2018-09-28T10:42:14.331Z,36.70
2018-09-28T10:44:41.465Z,36.50
2018-09-28T10:47:08.534Z,36.50
2018-09-28T10:49:35.607Z,36.50
2018-09-28T10:52:02.916Z,36.70
2018-09-28T10:54:29.781Z,36.70
2018-09-28T10:56:56.857Z,36.70
2018-09-28T10:59:23.941Z,36.60
2018-09-28T11:01:51.083Z,36.50
2018-09-28T11:04:18.193Z,36.20
2018-09-28T11:06:45.405Z,36.10
2018-09-28T11:09:12.786Z,36.00
2018-09-28T11:11:40.497Z,36.10
2018-09-28T11:14:07.637Z,36.00
2018-09-28T11:16:34.721Z,35.80
2018-09-28T11:19:02.182Z,35.90
2018-09-28T11:21:29.156Z,35.90
2018-09-28T11:23:56.216Z,35.90
2018-09-28T11:26:23.351Z,35.70
2018-09-28T11:28:50.451Z,35.70
2018-09-28T11:31:17.521Z,35.80
2018-09-28T11:33:44.641Z,35.70
2018-09-28T11:36:11.693Z,35.80
2018-09-28T11:38:38.848Z,35.80
2018-09-28T11:41:05.884Z,35.70
2018-09-28T11:43:32.949Z,35.50
2018-09-28T11:46:00.922Z,35.50
2018-09-28T11:48:28.013Z,35.60
2018-09-28T11:50:55.100Z,35.60
2018-09-28T11:53:22.662Z,35.50
2018-09-28T11:55:49.763Z,35.40
2018-09-28T11:58:16.829Z,35.50
2018-09-28T12:00:43.925Z,35.30
2018-09-28T12:03:11.056Z,35.10
2018-09-28T12:05:38.102Z,35.10
2018-09-28T12:08:05.527Z,35.20
2018-09-28T12:10:32.621Z,35.20
2018-09-28T12:12:59.710Z,35.10
2018-09-28T12:15:26.923Z,35.10
2018-09-28T12:17:53.910Z,35.10
2018-09-28T12:20:21.017Z,35.00
2018-09-28T12:22:48.086Z,35.10
2018-09-28T12:25:15.173Z,35.10
2018-09-28T12:27:42.966Z,35.00
2018-09-28T12:30:10.023Z,34.80
2018-09-28T12:32:37.109Z,34.80
2018-09-28T12:35:04.186Z,34.90
2018-09-28T12:37:31.258Z,34.80
2018-09-28T12:39:58.371Z,34.80
2018-09-28T12:42:25.443Z,34.80
2018-09-28T12:44:52.552Z,34.80
2018-09-28T12:47:19.608Z,34.80
2018-09-28T12:49:46.693Z,34.80
2018-09-28T12:52:13.828Z,34.70
2018-09-28T12:54:40.938Z,34.80
2018-09-28T12:57:08.005Z,34.90
2018-09-28T12:59:35.097Z,34.90
2018-09-28T13:02:02.315Z,35.00
2018-09-28T13:04:29.397Z,35.10
2018-09-28T13:06:56.477Z,35.10
2018-09-28T13:09:23.566Z,34.80
2018-09-28T13:11:50.650Z,34.80
2018-09-28T13:14:17.765Z,34.80
2018-09-28T13:16:44.810Z,34.70
2018-09-28T13:19:11.881Z,34.70
2018-09-28T13:21:39.016Z,34.60
2018-09-28T13:24:06.290Z,34.30
2018-09-28T13:26:33.439Z,34.30
2018-09-28T13:29:00.523Z,34.20
2018-09-28T13:31:27.558Z,34.20
2018-09-28T13:33:54.662Z,34.30
2018-09-28T13:36:21.943Z,34.20
2018-09-28T13:38:49.025Z,34.20
2018-09-28T13:41:16.413Z,34.20
2018-09-28T13:43:43.506Z,34.30
2018-09-28T13:46:10.662Z,34.60
2018-09-28T13:48:37.704Z,34.30
2018-09-28T13:51:05.034Z,34.30
2018-09-28T13:53:32.173Z,34.30
2018-09-28T13:55:59.200Z,34.30
2018-09-28T13:58:26.319Z,34.20
2018-09-28T14:00:53.366Z,34.00
2018-09-28T14:03:20.482Z,34.00
2018-09-28T14:05:47.557Z,34.10
2018-09-28T14:08:14.632Z,34.20
2018-09-28T14:10:41.751Z,34.10
2018-09-28T14:13:08.853Z,34.10
2018-09-28T14:15:35.945Z,33.90
2018-09-28T14:18:03.029Z,34.00
2018-09-28T14:20:30.138Z,34.00
2018-09-28T14:22:57.200Z,34.40
2018-09-28T14:25:24.301Z,34.20
2018-09-28T14:27:51.413Z,34.20
2018-09-28T14:30:18.490Z,34.20
2018-09-28T14:32:45.650Z,34.10
2018-09-28T14:35:12.673Z,34.10
2018-09-28T14:37:39.765Z,34.10
2018-09-28T14:40:06.903Z,34.00
2018-09-28T14:42:34.031Z,34.10
2018-09-28T14:45:01.077Z,34.00
2018-09-28T14:47:28.165Z,33.90
2018-09-28T14:49:55.257Z,33.90
2018-09-28T14:52:22.350Z,33.90
2018-09-28T14:54:49.446Z,33.80
2018-09-28T14:57:16.521Z,33.70
2018-09-28T14:59:43.597Z,33.70
2018-09-28T15:02:10.703Z,33.60
2018-09-28T15:04:37.814Z,33.60
2018-09-28T15:07:04.857Z,33.60
2018-09-28T15:09:31.959Z,33.60
2018-09-28T15:11:59.034Z,33.60
2018-09-28T15:14:26.225Z,33.60
2018-09-28T15:16:53.198Z,33.40
2018-09-28T15:19:20.282Z,33.40
2018-09-28T15:21:47.382Z,33.50
2018-09-28T15:24:14.466Z,33.70
2018-09-28T15:26:41.551Z,33.50
2018-09-28T15:29:08.650Z,33.60
2018-09-28T15:31:35.726Z,33.60
2018-09-28T15:34:02.797Z,33.60
2018-09-28T15:36:29.885Z,33.60
2018-09-28T15:38:56.984Z,33.60
2018-09-28T15:41:24.049Z,33.60
2018-09-28T15:43:51.150Z,33.60
2018-09-28T15:46:18.273Z,33.60
2018-09-28T15:48:45.345Z,33.60
2018-09-28T15:51:12.435Z,33.60
2018-09-28T15:53:39.597Z,33.60
2018-09-28T15:56:07.262Z,33.80
2018-09-28T15:58:34.342Z,34.20
2018-09-28T16:01:01.430Z,34.00
2018-09-28T16:03:28.506Z,34.00
2018-09-28T16:05:55.601Z,33.90
2018-09-28T16:08:22.673Z,34.00
2018-09-28T16:10:49.744Z,33.90
2018-09-28T16:13:16.813Z,34.00
2018-09-28T16:15:43.886Z,33.90
2018-09-28T16:18:11.007Z,34.20
2018-09-28T16:20:38.766Z,33.90
2018-09-28T16:23:05.966Z,33.90
2018-09-28T16:25:33.037Z,34.20
2018-09-28T16:28:00.137Z,34.20
2018-09-28T16:30:27.219Z,34.30
2018-09-28T16:32:54.312Z,34.50
2018-09-28T16:35:21.795Z,34.60
2018-09-28T16:37:48.873Z,34.70
2018-09-28T16:40:15.948Z,34.90
2018-09-28T16:42:43.061Z,35.00
2018-09-28T16:45:10.138Z,35.10
2018-09-28T16:47:37.231Z,35.20
2018-09-28T16:50:04.669Z,35.20
2018-09-28T16:52:31.754Z,35.20
2018-09-28T16:54:58.821Z,35.00
2018-09-28T16:57:25.927Z,34.80
2018-09-28T16:59:53.002Z,34.80
2018-09-28T17:02:20.082Z,34.70
2018-09-28T17:04:47.196Z,34.70
2018-09-28T17:07:14.265Z,34.70
2018-09-28T17:09:41.671Z,34.70
2018-09-28T17:12:08.745Z,34.70
2018-09-28T17:14:35.827Z,34.80
2018-09-28T17:17:02.942Z,34.70
2018-09-28T17:19:30.035Z,34.70
2018-09-28T17:21:57.166Z,34.70
2018-09-28T17:24:25.212Z,34.80
2018-09-28T17:26:52.300Z,34.90
2018-09-28T17:29:19.394Z,34.90
2018-09-28T17:31:46.477Z,34.90
2018-09-28T17:34:13.558Z,34.90
2018-09-28T17:36:40.637Z,35.20
2018-09-28T17:39:09.089Z,34.90
2018-09-28T17:41:36.439Z,34.80
2018-09-28T17:44:03.518Z,34.90
2018-09-28T17:46:30.624Z,34.90
2018-09-28T17:48:57.721Z,34.90
2018-09-28T17:51:24.806Z,35.00
2018-09-28T17:53:51.931Z,35.20
2018-09-28T17:56:18.995Z,35.90
2018-09-28T17:58:46.076Z,35.60
2018-09-28T18:01:13.166Z,35.50
2018-09-28T18:03:40.258Z,35.50
2018-09-28T18:06:07.345Z,35.50
2018-09-28T18:08:34.470Z,35.50
2018-09-28T18:11:01.577Z,35.60
2018-09-28T18:13:28.645Z,35.70
2018-09-28T18:15:55.750Z,35.80
2018-09-28T18:18:22.830Z,36.00
2018-09-28T18:20:49.946Z,36.00
2018-09-28T18:23:17.106Z,36.00
2018-09-28T18:25:44.197Z,36.10
2018-09-28T18:28:11.350Z,36.10
2018-09-28T18:30:38.397Z,36.20
2018-09-28T18:33:05.517Z,36.20
2018-09-28T18:35:32.609Z,36.30
2018-09-28T18:37:59.698Z,36.30
2018-09-28T18:40:26.781Z,36.30
2018-09-28T18:42:53.870Z,36.30
2018-09-28T18:45:20.966Z,36.30
2018-09-28T18:47:48.072Z,36.30
2018-09-28T18:50:15.228Z,36.30
2018-09-28T18:52:42.325Z,36.30
2018-09-28T18:56:34.016Z,36.30
2018-09-28T18:59:01.077Z,36.40
2018-09-28T19:01:28.163Z,36.30
2018-09-28T19:03:55.251Z,36.40
2018-09-28T19:06:22.413Z,36.40
2018-09-28T19:08:49.505Z,36.40
2018-09-28T19:11:16.597Z,36.50
2018-09-28T19:13:43.690Z,36.50
2018-09-28T19:16:10.769Z,36.50
2018-09-28T19:18:37.874Z,36.50
2018-09-28T19:21:04.953Z,36.60
2018-09-28T19:23:32.046Z,36.60
2018-09-28T19:25:59.241Z,36.60
2018-09-28T19:28:26.318Z,36.60
2018-09-28T19:30:53.673Z,36.70
2018-09-28T19:33:20.629Z,36.90
2018-09-28T19:35:47.718Z,36.90
2018-09-28T19:38:14.801Z,37.00
2018-09-28T19:40:41.886Z,37.10
2018-09-28T19:43:08.988Z,37.20
2018-09-28T19:45:36.077Z,37.20
2018-09-28T19:48:03.154Z,37.20
2018-09-28T19:50:30.234Z,37.20
2018-09-28T19:52:57.331Z,37.20
2018-09-28T19:55:24.489Z,37.30
2018-09-28T19:57:51.625Z,37.30
2018-09-28T20:00:18.699Z,37.30
2018-09-28T20:02:45.795Z,37.20
2018-09-28T20:05:13.219Z,37.20
2018-09-28T20:07:40.307Z,37.20
2018-09-28T20:10:07.406Z,37.20
2018-09-28T20:12:34.530Z,37.10
2018-09-28T20:15:01.625Z,37.20
2018-09-28T20:17:28.861Z,37.20
2018-09-28T20:19:56.221Z,37.30
2018-09-28T20:22:23.307Z,37.20
2018-09-28T20:24:50.390Z,37.20
2018-09-28T20:27:17.489Z,37.30
2018-09-28T20:29:44.581Z,37.20
2018-09-28T20:32:11.673Z,37.20
2018-09-28T20:34:38.765Z,37.20
2018-09-28T20:37:05.865Z,37.20
2018-09-28T20:39:32.955Z,37.20
2018-09-28T20:42:00.042Z,37.30
2018-09-28T20:44:27.117Z,37.20
2018-09-28T20:46:54.205Z,37.20
2018-09-28T20:49:21.273Z,37.20
2018-09-28T20:51:48.360Z,37.30
2018-09-28T20:54:16.073Z,37.30
2018-09-28T20:56:43.177Z,37.30
2018-09-28T20:59:10.266Z,37.20
2018-09-28T21:01:37.357Z,37.30
2018-09-28T21:04:04.846Z,37.30
2018-09-28T21:06:31.926Z,37.30
2018-09-28T21:08:59.017Z,37.50
2018-09-28T21:11:26.313Z,37.30
2018-09-28T21:13:53.393Z,37.30
2018-09-28T21:16:20.477Z,37.30
2018-09-28T21:18:48.089Z,37.40
2018-09-28T21:21:15.202Z,37.40
2018-09-28T21:23:42.282Z,37.40
2018-09-28T21:26:09.365Z,37.40
2018-09-28T21:28:37.202Z,37.50
2018-09-28T21:31:04.284Z,37.40
2018-09-28T21:33:31.378Z,37.50
2018-09-28T21:35:58.479Z,37.50
2018-09-28T21:38:25.593Z,37.40
2018-09-28T21:40:52.669Z,37.50
2018-09-28T21:43:19.782Z,37.40
2018-09-28T21:45:46.863Z,37.50
2018-09-28T21:48:13.946Z,37.50
2018-09-28T21:50:41.027Z,37.50
2018-09-28T21:53:08.104Z,37.50
2018-09-28T21:55:35.245Z,37.50
2018-09-28T21:58:02.350Z,37.60
2018-09-28T22:00:29.493Z,37.60
2018-09-28T22:02:57.066Z,37.60
2018-09-28T22:05:24.145Z,37.60
2018-09-28T22:07:51.233Z,37.60
2018-09-28T22:10:18.371Z,37.60
2018-09-28T22:12:45.451Z,37.60
2018-09-28T22:15:12.539Z,37.60
2018-09-28T22:17:39.619Z,37.70
2018-09-28T22:20:06.697Z,37.70
2018-09-28T22:22:33.781Z,37.70
2018-09-28T22:25:00.861Z,37.70
2018-09-28T22:27:28.345Z,37.70
2018-09-28T22:29:55.422Z,37.80
2018-09-28T22:32:22.489Z,37.80
2018-09-28T22:34:49.617Z,37.80
2018-09-28T22:37:16.700Z,37.80
2018-09-28T22:39:43.789Z,37.80
2018-09-28T22:42:10.881Z,37.80
2018-09-28T22:44:37.958Z,37.90
2018-09-28T22:47:05.045Z,37.90
2018-09-28T22:49:32.130Z,37.90
2018-09-28T22:51:59.217Z,37.90
2018-09-28T22:54:26.342Z,38.00
2018-09-28T22:56:53.441Z,38.00
2018-09-28T22:59:20.565Z,38.00
2018-09-28T23:01:47.646Z,38.00
2018-09-28T23:04:14.734Z,38.00
2018-09-28T23:06:41.827Z,38.00
2018-09-28T23:09:09.264Z,38.10
2018-09-28T23:11:36.592Z,38.10
2018-09-28T23:14:03.699Z,38.10
2018-09-28T23:16:30.774Z,38.10
2018-09-28T23:18:57.845Z,38.20
2018-09-28T23:21:24.979Z,38.20
2018-09-28T23:23:52.021Z,38.20
2018-09-28T23:26:19.137Z,38.20
2018-09-28T23:28:46.998Z,38.20
2018-09-28T23:31:14.085Z,38.30
2018-09-28T23:33:41.161Z,38.20
2018-09-28T23:36:08.246Z,38.30
2018-09-28T23:38:35.444Z,38.30
2018-09-28T23:41:02.522Z,38.30
2018-09-28T23:43:29.598Z,38.40
2018-09-28T23:45:56.693Z,38.30
2018-09-28T23:48:23.785Z,38.40
2018-09-28T23:50:50.861Z,38.40
2018-09-28T23:53:17.933Z,38.40
2018-09-28T23:55:45.029Z,38.40
2018-09-28T23:58:12.345Z,38.40
